Time;durP1;ratioP1;P1;durP2;ratioP2;P2;SDS_P1;SDS_P2;PMS_P1;PMS_P2;Temp;Humidity;BMP_temperature;BMP_pressure;BME280_temperature;BME280_humidity;BME280_pressure;Samples;Min_cycle;Max_cycle;Signal;HPM_P1;HPM_P2
2023/08/15 00:00:22;;;;;;;8.10;4.77;;;21.00;99.90;;;;;;5078836;28;20424;-76
2023/08/15 00:03:07;;;;;;;10.50;5.43;;;21.00;99.90;;;;;;5084957;28;20619;-76
2023/08/15 00:05:53;;;;;;;12.73;5.50;;;21.00;99.90;;;;;;5078651;28;20970;-76
2023/08/15 00:08:40;;;;;;;7.40;5.33;;;20.90;99.90;;;;;;5079882;28;20917;-76
2023/08/15 00:11:25;;;;;;;7.20;5.10;;;20.80;99.90;;;;;;5079777;28;20413;-76
2023/08/15 00:14:11;;;;;;;9.30;4.70;;;20.80;99.90;;;;;;5079197;28;20474;-76
2023/08/15 00:16:56;;;;;;;5.30;4.80;;;20.70;99.90;;;;;;5077051;28;20453;-76
2023/08/15 00:19:42;;;;;;;8.43;5.47;;;20.70;99.90;;;;;;5073649;28;20451;-76
2023/08/15 00:22:28;;;;;;;10.67;5.37;;;20.70;99.90;;;;;;5078946;28;20481;-76
2023/08/15 00:25:15;;;;;;;6.70;5.00;;;20.70;99.90;;;;;;5079343;28;20440;-75
2023/08/15 00:28:00;;;;;;;8.83;5.70;;;20.70;99.90;;;;;;5074018;28;20947;-76
2023/08/15 00:30:46;;;;;;;8.93;4.97;;;20.70;99.90;;;;;;5079893;28;20434;-76
2023/08/15 00:33:31;;;;;;;11.40;4.27;;;20.80;99.90;;;;;;5075854;28;20464;-76
2023/08/15 00:36:17;;;;;;;6.27;4.33;;;20.80;99.90;;;;;;5080382;28;21034;-76
2023/08/15 00:39:03;;;;;;;12.03;4.60;;;20.70;99.90;;;;;;5075974;28;20497;-75
2023/08/15 00:41:49;;;;;;;6.57;5.10;;;20.50;99.90;;;;;;5076372;28;20469;-76
2023/08/15 00:44:37;;;;;;;6.37;5.17;;;20.50;99.90;;;;;;5073525;28;21163;-76
2023/08/15 00:47:22;;;;;;;7.93;6.40;;;20.40;99.90;;;;;;5073155;28;20472;-76
2023/08/15 00:50:10;;;;;;;9.30;5.30;;;20.30;99.90;;;;;;5077995;28;20438;-76
2023/08/15 00:52:55;;;;;;;7.67;5.50;;;20.30;99.90;;;;;;5079732;28;20542;-76
2023/08/15 00:55:42;;;;;;;11.37;5.70;;;20.30;99.90;;;;;;5076193;28;20978;-76
2023/08/15 00:58:30;;;;;;;12.00;5.63;;;20.40;99.90;;;;;;5079242;28;20998;-76
2023/08/15 01:01:17;;;;;;;12.40;5.80;;;20.30;99.90;;;;;;5080060;28;20973;-76
2023/08/15 01:04:03;;;;;;;10.03;5.57;;;20.40;99.90;;;;;;5076263;28;20637;-76
2023/08/15 01:06:49;;;;;;;6.53;5.20;;;20.30;99.90;;;;;;5081498;28;20497;-76
2023/08/15 01:09:34;;;;;;;8.27;5.63;;;20.30;99.90;;;;;;5079167;28;20445;-76
2023/08/15 01:12:29;;;;;;;8.10;5.33;;;20.30;99.90;;;;;;5076199;28;20439;-76
2023/08/15 01:15:19;;;;;;;11.00;5.60;;;20.30;99.90;;;;;;5075566;28;21044;-76
2023/08/15 01:18:10;;;;;;;7.10;4.93;;;20.20;99.90;;;;;;5075921;28;20485;-76
2023/08/15 01:20:57;;;;;;;6.33;4.90;;;20.30;99.90;;;;;;5079530;28;20812;-76
2023/08/15 01:23:44;;;;;;;8.67;4.60;;;20.20;99.90;;;;;;5075248;28;20835;-75
2023/08/15 01:26:29;;;;;;;13.17;5.90;;;20.30;99.90;;;;;;5074091;28;20917;-76
2023/08/15 01:29:15;;;;;;;7.33;5.57;;;20.30;99.90;;;;;;5074032;28;20952;-76
2023/08/15 01:32:08;;;;;;;9.83;6.07;;;20.20;99.90;;;;;;5074797;28;20540;-76
2023/08/15 01:34:58;;;;;;;14.23;5.70;;;20.30;99.90;;;;;;5072245;28;20442;-76
2023/08/15 01:37:48;;;;;;;11.87;5.90;;;20.20;99.90;;;;;;5079291;28;20477;-76
2023/08/15 01:40:36;;;;;;;7.87;5.30;;;20.20;99.90;;;;;;5074079;28;20415;-75
2023/08/15 01:43:23;;;;;;;6.60;5.37;;;20.20;99.90;;;;;;5077591;28;20481;-76
2023/08/15 01:46:09;;;;;;;10.83;5.13;;;20.30;99.90;;;;;;5072433;28;20634;-76
2023/08/15 01:48:54;;;;;;;9.73;5.97;;;20.30;99.90;;;;;;5077848;28;20494;-76
2023/08/15 01:51:39;;;;;;;9.17;5.50;;;20.30;99.90;;;;;;5074946;28;20560;-76
2023/08/15 01:54:25;;;;;;;6.50;5.20;;;20.30;99.90;;;;;;5075861;28;20407;-76
2023/08/15 01:57:12;;;;;;;6.90;5.00;;;20.20;99.90;;;;;;5075043;28;21117;-76
2023/08/15 01:59:57;;;;;;;10.63;5.33;;;20.20;99.90;;;;;;5074738;28;20962;-76
2023/08/15 02:02:43;;;;;;;8.90;5.77;;;20.20;99.90;;;;;;5082416;28;20494;-76
2023/08/15 02:05:29;;;;;;;13.80;6.00;;;20.20;99.90;;;;;;5076260;28;20495;-76
2023/08/15 02:08:14;;;;;;;5.83;5.03;;;20.20;99.90;;;;;;5078315;28;20461;-76
2023/08/15 02:11:00;;;;;;;9.47;5.37;;;20.10;99.90;;;;;;5081192;28;20474;-76
2023/08/15 02:13:47;;;;;;;5.60;4.50;;;20.10;99.90;;;;;;5083816;28;20437;-76
2023/08/15 02:16:33;;;;;;;13.97;5.90;;;20.10;99.90;;;;;;5077804;28;20798;-76
2023/08/15 02:19:18;;;;;;;6.43;5.40;;;20.00;99.90;;;;;;5076462;28;20486;-76
2023/08/15 02:22:04;;;;;;;9.83;6.63;;;20.00;99.90;;;;;;5076139;28;20448;-76
2023/08/15 02:24:49;;;;;;;6.63;5.93;;;20.00;99.90;;;;;;5075437;28;20493;-76
2023/08/15 02:27:35;;;;;;;9.13;6.30;;;19.90;99.90;;;;;;5079269;28;20519;-76
2023/08/15 02:30:22;;;;;;;17.00;6.93;;;19.90;99.90;;;;;;5076882;28;20906;-76
2023/08/15 02:33:08;;;;;;;8.60;5.57;;;20.00;99.90;;;;;;5079211;28;20571;-76
2023/08/15 02:35:54;;;;;;;9.77;5.30;;;20.00;99.90;;;;;;5080865;28;20810;-76
2023/08/15 02:38:39;;;;;;;5.87;5.27;;;20.00;99.90;;;;;;5083566;28;20465;-76
2023/08/15 02:41:25;;;;;;;7.77;5.50;;;20.00;99.90;;;;;;5078015;28;20525;-76
2023/08/15 02:44:11;;;;;;;9.30;5.77;;;20.00;99.90;;;;;;5082577;28;20446;-76
2023/08/15 02:46:58;;;;;;;10.37;5.23;;;19.90;99.90;;;;;;5076127;28;20424;-75
2023/08/15 02:49:43;;;;;;;9.77;6.00;;;19.90;99.90;;;;;;5078497;28;20473;-75
2023/08/15 02:52:29;;;;;;;10.50;5.80;;;20.00;99.90;;;;;;5080570;28;20428;-76
2023/08/15 02:55:14;;;;;;;7.00;5.00;;;20.00;99.90;;;;;;5077727;28;20911;-76
2023/08/15 02:58:00;;;;;;;12.87;4.73;;;20.10;99.90;;;;;;5078811;28;20489;-75
2023/08/15 03:00:45;;;;;;;5.90;5.07;;;20.20;99.90;;;;;;5076347;28;20800;-76
2023/08/15 03:03:32;;;;;;;10.27;6.50;;;20.10;99.90;;;;;;5077779;28;20465;-76
2023/08/15 03:06:18;;;;;;;7.67;6.43;;;20.20;99.90;;;;;;5074196;28;20491;-76
2023/08/15 03:09:03;;;;;;;7.43;5.00;;;20.20;99.90;;;;;;5076149;28;21177;-76
2023/08/15 03:11:49;;;;;;;6.07;4.93;;;20.00;99.90;;;;;;5078332;28;20457;-76
2023/08/15 03:14:35;;;;;;;7.23;5.63;;;20.10;99.90;;;;;;5080201;28;20440;-75
2023/08/15 03:17:21;;;;;;;13.83;5.70;;;20.10;99.90;;;;;;5077836;28;20498;-76
2023/08/15 03:20:09;;;;;;;7.30;5.63;;;20.00;99.90;;;;;;5077502;28;20467;-76
2023/08/15 03:22:55;;;;;;;6.70;5.63;;;20.00;99.90;;;;;;5080348;28;20812;-76
2023/08/15 03:25:40;;;;;;;5.87;5.07;;;20.10;99.90;;;;;;5078200;28;20438;-76
2023/08/15 03:28:26;;;;;;;5.97;4.90;;;20.10;99.90;;;;;;5080401;28;20485;-76
2023/08/15 03:31:11;;;;;;;9.33;6.03;;;20.20;99.90;;;;;;5081363;28;20450;-75
2023/08/15 03:33:57;;;;;;;12.10;6.20;;;20.10;99.90;;;;;;5077513;28;21057;-76
2023/08/15 03:36:45;;;;;;;10.97;6.53;;;19.90;99.90;;;;;;5077700;28;20458;-75
2023/08/15 03:39:31;;;;;;;6.43;5.83;;;19.90;99.90;;;;;;5081924;28;20970;-76
2023/08/15 03:42:16;;;;;;;10.00;5.60;;;19.90;99.90;;;;;;5082457;28;20946;-76
2023/08/15 03:45:02;;;;;;;14.53;5.40;;;19.90;99.90;;;;;;5082960;28;20772;-76
2023/08/15 03:47:47;;;;;;;9.00;6.67;;;19.90;99.90;;;;;;5079643;28;20946;-76
2023/08/15 03:50:34;;;;;;;12.20;5.80;;;19.90;99.90;;;;;;5081997;28;20557;-75
2023/08/15 03:53:20;;;;;;;9.63;5.83;;;19.90;99.90;;;;;;5080167;28;20437;-76
2023/08/15 03:56:05;;;;;;;16.50;5.73;;;20.00;99.90;;;;;;5079877;28;20420;-76
2023/08/15 03:58:51;;;;;;;7.70;5.97;;;19.90;99.90;;;;;;5081220;28;20443;-76
2023/08/15 04:01:36;;;;;;;11.47;5.57;;;19.90;99.90;;;;;;5080617;28;20427;-75
2023/08/15 04:04:22;;;;;;;10.50;5.47;;;19.80;99.90;;;;;;5085472;28;20846;-76
2023/08/15 04:07:08;;;;;;;7.40;5.77;;;19.80;99.90;;;;;;5076986;28;20468;-76
2023/08/15 04:09:54;;;;;;;8.83;6.40;;;19.90;99.90;;;;;;5081545;28;20444;-76
2023/08/15 04:12:40;;;;;;;13.33;6.20;;;19.90;99.90;;;;;;5075362;28;20958;-76
2023/08/15 04:15:25;;;;;;;7.80;6.20;;;19.90;99.90;;;;;;5077980;28;20576;-76
2023/08/15 04:18:11;;;;;;;7.03;5.67;;;19.80;99.90;;;;;;5080501;28;20561;-76
2023/08/15 04:20:56;;;;;;;9.03;6.97;;;19.80;99.90;;;;;;5074701;28;20818;-76
2023/08/15 04:23:42;;;;;;;16.20;6.47;;;19.80;99.90;;;;;;5076169;28;20534;-76
2023/08/15 04:26:28;;;;;;;8.83;6.60;;;19.60;99.90;;;;;;5074430;28;20450;-75
2023/08/15 04:29:14;;;;;;;7.17;6.20;;;19.60;99.90;;;;;;5077770;28;20511;-75
2023/08/15 04:32:00;;;;;;;7.80;5.23;;;19.70;99.90;;;;;;5078888;28;20940;-76
2023/08/15 04:34:45;;;;;;;8.00;6.40;;;19.80;99.90;;;;;;5078087;28;20421;-76
2023/08/15 04:37:30;;;;;;;11.20;6.90;;;19.80;99.90;;;;;;5084209;28;20842;-76
2023/08/15 04:40:29;;;;;;;7.93;5.57;;;19.90;99.90;;;;;;5080143;28;20532;-76
2023/08/15 04:43:16;;;;;;;11.47;6.23;;;20.00;99.90;;;;;;5079360;28;20443;-76
2023/08/15 04:46:02;;;;;;;12.43;6.03;;;20.10;99.90;;;;;;5078010;28;20452;-76
2023/08/15 04:48:47;;;;;;;8.90;6.80;;;20.10;99.90;;;;;;5080604;28;20458;-75
2023/08/15 04:51:32;;;;;;;13.70;6.83;;;20.20;99.90;;;;;;5077528;28;20457;-76
2023/08/15 04:54:18;;;;;;;9.63;6.40;;;20.10;99.90;;;;;;5080685;28;20438;-76
2023/08/15 04:57:05;;;;;;;7.40;6.47;;;20.10;99.90;;;;;;5077494;28;20420;-76
2023/08/15 04:59:51;;;;;;;9.90;5.93;;;20.20;99.90;;;;;;5076555;28;20427;-76
2023/08/15 05:02:37;;;;;;;11.47;6.57;;;20.10;99.90;;;;;;5079095;28;20442;-76
2023/08/15 05:05:23;;;;;;;12.50;7.13;;;20.10;99.90;;;;;;5075962;28;20631;-75
2023/08/15 05:08:08;;;;;;;8.53;6.83;;;20.10;99.90;;;;;;5078399;28;20989;-76
2023/08/15 05:10:54;;;;;;;7.93;6.83;;;20.10;99.90;;;;;;5076695;28;20446;-76
2023/08/15 05:13:39;;;;;;;10.57;6.77;;;20.10;99.90;;;;;;5079844;28;20531;-75
2023/08/15 05:16:26;;;;;;;7.43;6.40;;;20.10;99.90;;;;;;5078364;28;20537;-75
2023/08/15 05:19:12;;;;;;;12.13;6.37;;;20.20;99.90;;;;;;5094033;22;20485;-71
2023/08/15 05:21:57;;;;;;;8.83;7.20;;;20.20;99.90;;;;;;5078339;28;20780;-71
2023/08/15 05:24:43;;;;;;;7.30;6.53;;;20.20;99.90;;;;;;5075710;28;20530;-71
2023/08/15 05:27:28;;;;;;;9.13;7.63;;;20.30;99.90;;;;;;5075759;28;20504;-71
2023/08/15 05:30:14;;;;;;;13.23;6.40;;;20.30;99.90;;;;;;5075727;28;20586;-71
2023/08/15 05:33:01;;;;;;;7.80;6.37;;;20.40;99.90;;;;;;5078448;28;20596;-71
2023/08/15 05:35:46;;;;;;;9.33;6.80;;;20.50;99.90;;;;;;5073885;28;20431;-71
2023/08/15 05:38:32;;;;;;;12.20;7.00;;;20.40;99.90;;;;;;5073819;28;20465;-71
2023/08/15 05:41:17;;;;;;;17.13;7.53;;;20.50;99.90;;;;;;5074787;28;20441;-71
2023/08/15 05:44:03;;;;;;;8.60;6.97;;;20.50;99.90;;;;;;5076870;28;21020;-71
2023/08/15 05:46:48;;;;;;;10.23;7.80;;;20.50;99.90;;;;;;5080370;28;20940;-71
2023/08/15 05:49:35;;;;;;;7.03;5.80;;;20.60;99.90;;;;;;5072623;28;22094;-71
2023/08/15 05:52:20;;;;;;;8.47;6.77;;;20.70;99.90;;;;;;5072918;28;20642;-71
2023/08/15 05:55:07;;;;;;;11.13;7.53;;;20.80;99.90;;;;;;5074416;28;20423;-71
2023/08/15 05:57:52;;;;;;;9.30;7.00;;;20.90;99.90;;;;;;5071714;28;20958;-71
2023/08/15 06:00:38;;;;;;;10.83;7.67;;;21.00;99.90;;;;;;5074733;28;20645;-71
2023/08/15 06:03:24;;;;;;;8.27;7.07;;;21.10;99.90;;;;;;5069389;28;20484;-71
2023/08/15 06:06:10;;;;;;;9.70;7.50;;;21.20;99.90;;;;;;5069449;28;20480;-71
2023/08/15 06:08:57;;;;;;;8.83;7.53;;;21.40;99.90;;;;;;5075326;28;21049;-71
2023/08/15 06:11:42;;;;;;;10.03;7.37;;;21.50;99.90;;;;;;5073984;28;20471;-71
2023/08/15 06:14:27;;;;;;;9.43;7.03;;;21.60;99.90;;;;;;5076031;28;21106;-71
2023/08/15 06:17:13;;;;;;;12.57;8.07;;;21.80;99.90;;;;;;5073059;28;20456;-71
2023/08/15 06:19:58;;;;;;;8.47;7.40;;;21.80;99.90;;;;;;5075087;28;20495;-71
2023/08/15 06:22:45;;;;;;;8.53;7.63;;;21.90;99.90;;;;;;5071038;28;20427;-71
2023/08/15 06:25:31;;;;;;;7.17;6.27;;;22.00;99.90;;;;;;5069496;28;21087;-71
2023/08/15 06:28:18;;;;;;;13.00;7.50;;;22.10;99.90;;;;;;5074729;28;21043;-71
2023/08/15 06:31:03;;;;;;;13.17;7.27;;;22.20;99.90;;;;;;5070762;28;20534;-71
2023/08/15 06:33:49;;;;;;;7.83;6.50;;;22.10;99.90;;;;;;5075080;28;20433;-71
2023/08/15 06:36:34;;;;;;;10.20;7.37;;;22.20;99.90;;;;;;5073546;28;20915;-71
2023/08/15 06:39:21;;;;;;;11.50;7.10;;;22.30;99.90;;;;;;5072885;28;20462;-72
2023/08/15 06:42:07;;;;;;;9.10;7.10;;;22.40;99.90;;;;;;5075653;28;20445;-71
2023/08/15 06:45:03;;;;;;;11.20;6.40;;;22.50;99.90;;;;;;5072926;28;20466;-71
2023/08/15 06:47:49;;;;;;;6.77;6.10;;;22.50;99.90;;;;;;5079127;28;20948;-71
2023/08/15 06:50:34;;;;;;;10.53;5.30;;;22.60;99.90;;;;;;5075341;28;20458;-71
2023/08/15 06:53:20;;;;;;;8.93;5.90;;;22.70;99.90;;;;;;5079029;28;20604;-71
2023/08/15 06:56:09;;;;;;;8.93;5.00;;;22.80;99.90;;;;;;5076263;28;20457;-71
2023/08/15 06:58:55;;;;;;;10.43;5.23;;;22.90;99.90;;;;;;5076871;28;20539;-72
2023/08/15 07:01:40;;;;;;;14.30;3.80;;;23.00;99.90;;;;;;5078774;28;20422;-71
2023/08/15 07:04:26;;;;;;;10.87;4.50;;;23.10;99.90;;;;;;5081678;28;20465;-71
2023/08/15 07:07:11;;;;;;;13.03;3.80;;;23.20;99.90;;;;;;5083778;28;20563;-71
2023/08/15 07:09:58;;;;;;;6.77;4.23;;;23.20;99.90;;;;;;5087310;28;20437;-71
2023/08/15 07:12:44;;;;;;;6.20;4.43;;;23.30;99.90;;;;;;5074005;28;20445;-71
2023/08/15 07:15:31;;;;;;;4.87;4.20;;;23.40;99.90;;;;;;5080185;28;20911;-71
2023/08/15 07:18:18;;;;;;;4.90;4.03;;;23.40;99.90;;;;;;5074279;28;20481;-71
2023/08/15 07:21:04;;;;;;;4.90;3.80;;;23.40;99.90;;;;;;5075245;28;20576;-71
2023/08/15 07:23:50;;;;;;;6.47;4.00;;;23.50;99.90;;;;;;5075402;28;20627;-72
2023/08/15 07:26:35;;;;;;;5.67;3.63;;;23.60;99.90;;;;;;5077696;28;20446;-71
2023/08/15 07:29:22;;;;;;;6.00;4.20;;;23.70;99.90;;;;;;5076687;28;20518;-71
2023/08/15 07:32:08;;;;;;;6.33;3.87;;;23.80;99.90;;;;;;5074120;28;20555;-71
2023/08/15 07:34:54;;;;;;;4.77;3.53;;;23.80;99.90;;;;;;5073258;28;20533;-71
2023/08/15 07:37:39;;;;;;;6.37;3.60;;;23.90;99.90;;;;;;5072194;28;20975;-71
2023/08/15 07:40:25;;;;;;;4.50;2.97;;;23.90;99.90;;;;;;5079382;28;20523;-71
2023/08/15 07:43:11;;;;;;;9.13;3.73;;;24.00;99.90;;;;;;5080666;28;20445;-71
2023/08/15 07:45:58;;;;;;;8.97;3.50;;;24.10;99.90;;;;;;5080129;28;20609;-71
2023/08/15 07:48:44;;;;;;;4.67;3.40;;;24.20;99.90;;;;;;5075605;28;20684;-72
2023/08/15 07:51:29;;;;;;;5.40;3.40;;;24.30;99.90;;;;;;5078788;28;20475;-71
2023/08/15 07:54:15;;;;;;;5.43;3.40;;;24.40;99.90;;;;;;5078113;28;20443;-71
2023/08/15 07:57:00;;;;;;;8.90;4.10;;;24.40;99.90;;;;;;5070909;28;20471;-72
2023/08/15 07:59:48;;;;;;;6.10;3.03;;;24.50;99.90;;;;;;5072548;28;20478;-71
2023/08/15 08:02:35;;;;;;;5.53;3.20;;;24.50;99.90;;;;;;5074816;28;21183;-71
2023/08/15 08:05:21;;;;;;;4.07;2.97;;;24.60;99.90;;;;;;5085122;28;20536;-71
2023/08/15 08:08:07;;;;;;;6.27;3.17;;;24.80;99.90;;;;;;5075164;28;20466;-71
2023/08/15 08:10:52;;;;;;;6.97;3.20;;;24.90;99.90;;;;;;5083924;28;20487;-71
2023/08/15 08:13:38;;;;;;;3.70;2.80;;;25.00;99.90;;;;;;5089108;28;20464;-71
2023/08/15 08:16:23;;;;;;;6.07;3.47;;;25.00;99.90;;;;;;5077812;28;20447;-71
2023/08/15 08:19:10;;;;;;;5.67;2.70;;;25.10;99.90;;;;;;5083935;28;21349;-71
2023/08/15 08:21:55;;;;;;;4.97;2.43;;;25.20;99.90;;;;;;5079515;28;20520;-71
2023/08/15 08:24:41;;;;;;;5.40;2.67;;;25.30;99.90;;;;;;5091080;28;20805;-71
2023/08/15 08:27:27;;;;;;;4.70;3.20;;;25.30;99.90;;;;;;5086450;28;20544;-71
2023/08/15 08:30:13;;;;;;;5.90;2.53;;;25.40;99.90;;;;;;5079827;28;20458;-71
2023/08/15 08:32:59;;;;;;;3.97;2.43;;;25.50;99.90;;;;;;5086492;28;20493;-71
2023/08/15 08:35:46;;;;;;;5.73;3.00;;;25.50;99.90;;;;;;5083422;28;20454;-71
2023/08/15 08:38:31;;;;;;;5.90;3.30;;;25.60;99.90;;;;;;5077068;28;20467;-71
2023/08/15 08:41:17;;;;;;;4.50;2.63;;;25.70;99.90;;;;;;5076755;28;20448;-71
2023/08/15 08:44:03;;;;;;;3.20;2.43;;;25.70;99.90;;;;;;5077555;28;20525;-71
2023/08/15 08:46:48;;;;;;;5.60;2.97;;;25.60;99.90;;;;;;5076908;28;20431;-71
2023/08/15 08:49:34;;;;;;;4.50;3.00;;;25.50;99.90;;;;;;5076921;28;20472;-71
2023/08/15 08:52:21;;;;;;;5.53;3.13;;;25.50;99.90;;;;;;5083189;28;20440;-71
2023/08/15 08:55:07;;;;;;;3.87;3.00;;;25.50;99.90;;;;;;5081660;28;20435;-71
2023/08/15 08:57:54;;;;;;;6.97;3.50;;;25.60;99.90;;;;;;5085858;28;20996;-71
2023/08/15 09:00:41;;;;;;;5.00;3.47;;;25.50;99.90;;;;;;5085589;28;20826;-71
2023/08/15 09:03:27;;;;;;;8.50;4.07;;;25.50;99.90;;;;;;5075861;28;20448;-72
2023/08/15 09:06:13;;;;;;;5.00;3.37;;;25.50;99.90;;;;;;5073066;28;20509;-72
2023/08/15 09:09:01;;;;;;;7.00;3.73;;;25.70;99.90;;;;;;5078999;28;20598;-72
2023/08/15 09:11:47;;;;;;;6.23;3.73;;;25.80;99.90;;;;;;5080011;28;20441;-72
2023/08/15 09:14:33;;;;;;;7.50;3.30;;;25.90;99.90;;;;;;5079206;28;20436;-72
2023/08/15 09:17:24;;;;;;;6.57;4.20;;;26.00;99.90;;;;;;5084211;28;20447;-72
2023/08/15 09:20:12;;;;;;;5.57;3.33;;;26.10;99.90;;;;;;5085412;28;20945;-72
2023/08/15 09:22:59;;;;;;;9.37;4.40;;;26.20;99.90;;;;;;5087752;28;20442;-70
2023/08/15 09:25:47;;;;;;;6.10;4.30;;;26.30;99.90;;;;;;5082705;28;20860;-70
2023/08/15 09:28:39;;;;;;;3.97;2.90;;;26.40;99.90;;;;;;5089680;28;20531;-70
2023/08/15 09:31:25;;;;;;;3.57;3.07;;;26.50;99.90;;;;;;5086929;28;20887;-70
2023/08/15 09:34:11;;;;;;;7.27;3.90;;;26.50;99.90;;;;;;5090432;28;20455;-70
2023/08/15 09:36:56;;;;;;;5.20;3.47;;;26.40;99.90;;;;;;5086022;28;20442;-70
2023/08/15 09:39:42;;;;;;;5.73;3.67;;;26.30;99.90;;;;;;5084488;28;20478;-70
2023/08/15 09:42:30;;;;;;;7.33;4.23;;;26.40;99.90;;;;;;5088752;28;20433;-70
2023/08/15 09:45:15;;;;;;;8.50;4.10;;;26.50;99.90;;;;;;5084999;28;20588;-70
2023/08/15 09:48:02;;;;;;;8.83;4.00;;;26.60;99.90;;;;;;5079846;28;20439;-70
2023/08/15 09:50:49;;;;;;;7.23;3.97;;;26.70;99.90;;;;;;5089046;28;20443;-70
2023/08/15 09:53:35;;;;;;;9.30;6.03;;;26.80;99.90;;;;;;5084193;28;20584;-70
2023/08/15 09:56:21;;;;;;;5.80;3.57;;;26.90;99.90;;;;;;5082643;28;20842;-70
2023/08/15 09:59:07;;;;;;;7.60;3.50;;;27.00;99.90;;;;;;5077495;28;20441;-70
2023/08/15 10:01:54;;;;;;;5.10;3.53;;;27.00;99.90;;;;;;5083255;28;20466;-70
2023/08/15 10:04:41;;;;;;;4.00;3.60;;;27.00;99.90;;;;;;5081700;28;20606;-70
2023/08/15 10:07:31;;;;;;;7.30;4.10;;;26.90;99.90;;;;;;5082872;28;20595;-71
2023/08/15 10:10:18;;;;;;;7.60;4.20;;;26.80;99.90;;;;;;5074401;28;20530;-71
2023/08/15 10:13:05;;;;;;;4.43;3.17;;;26.60;99.90;;;;;;5075410;28;20460;-71
2023/08/15 10:15:52;;;;;;;9.73;3.33;;;26.40;99.90;;;;;;5083702;28;20445;-71
2023/08/15 10:18:37;;;;;;;5.23;3.73;;;26.40;99.90;;;;;;5082166;28;20494;-72
2023/08/15 10:21:26;;;;;;;7.83;3.53;;;26.20;99.90;;;;;;5075814;28;20596;-71
2023/08/15 10:24:12;;;;;;;6.63;4.10;;;26.20;99.90;;;;;;5089728;28;20478;-71
2023/08/15 10:26:59;;;;;;;5.87;3.60;;;26.20;99.90;;;;;;5089456;28;20517;-71
2023/08/15 10:29:53;;;;;;;7.17;3.70;;;26.30;99.90;;;;;;5084481;28;20484;-72
2023/08/15 10:32:40;;;;;;;6.50;3.47;;;26.50;99.90;;;;;;5086831;28;20809;-71
2023/08/15 10:35:26;;;;;;;7.07;4.00;;;26.60;99.90;;;;;;5087093;28;20515;-72
2023/08/15 10:38:14;;;;;;;7.40;3.70;;;26.70;99.90;;;;;;5083400;28;20468;-71
2023/08/15 10:41:02;;;;;;;5.30;2.90;;;26.90;99.90;;;;;;5090243;28;20956;-71
2023/08/15 10:43:49;;;;;;;4.73;3.20;;;27.00;99.90;;;;;;5091282;28;20443;-71
2023/08/15 10:46:36;;;;;;;5.43;3.07;;;27.20;99.90;;;;;;5091167;28;20475;-71
2023/08/15 10:49:24;;;;;;;6.00;3.37;;;27.30;99.90;;;;;;5084936;28;20468;-71
2023/08/15 10:52:09;;;;;;;12.13;3.97;;;27.30;99.90;;;;;;5090932;28;20448;-71
2023/08/15 10:54:55;;;;;;;7.13;3.43;;;27.30;99.90;;;;;;5084319;28;20464;-71
2023/08/15 10:57:40;;;;;;;6.40;4.00;;;27.20;99.90;;;;;;5090509;28;20512;-72
2023/08/15 11:00:26;;;;;;;5.60;4.17;;;27.20;99.90;;;;;;5089348;28;20840;-71
2023/08/15 11:03:12;;;;;;;6.07;3.83;;;27.10;99.90;;;;;;5091912;28;20544;-71
2023/08/15 11:06:08;;;;;;;13.40;4.30;;;27.00;99.90;;;;;;5082502;28;20573;-72
2023/08/15 11:08:57;;;;;;;7.03;4.43;;;27.10;99.90;;;;;;5085101;28;20975;-72
2023/08/15 11:11:42;;;;;;;6.13;4.80;;;27.10;99.90;;;;;;5090450;28;20464;-72
2023/08/15 11:14:28;;;;;;;5.97;4.80;;;27.10;99.90;;;;;;5086435;28;20837;-72
2023/08/15 11:17:13;;;;;;;5.50;4.20;;;27.20;99.90;;;;;;5088272;28;20452;-72
2023/08/15 11:19:59;;;;;;;15.90;5.07;;;27.10;99.90;;;;;;5089928;28;20491;-72
2023/08/15 11:22:55;;;;;;;7.53;4.40;;;27.00;99.90;;;;;;5091198;28;20468;-72
2023/08/15 11:25:41;;;;;;;8.03;4.63;;;27.00;99.90;;;;;;5090260;28;20595;-72
2023/08/15 11:28:27;;;;;;;9.10;4.93;;;27.10;99.90;;;;;;5089759;28;20475;-72
2023/08/15 11:31:14;;;;;;;6.67;4.90;;;27.10;99.90;;;;;;5090748;28;20453;-71
2023/08/15 11:34:00;;;;;;;8.30;4.70;;;27.30;99.90;;;;;;5083286;28;20589;-71
2023/08/15 11:36:46;;;;;;;5.90;4.97;;;27.40;99.90;;;;;;5089297;28;20797;-72
2023/08/15 11:39:33;;;;;;;7.80;4.60;;;27.40;99.90;;;;;;5089632;28;20536;-72
2023/08/15 11:42:18;;;;;;;8.23;5.37;;;27.20;99.90;;;;;;5090610;28;20450;-71
2023/08/15 11:45:18;;;;;;;7.00;5.80;;;27.10;99.90;;;;;;5091355;28;20996;-72
2023/08/15 11:48:05;;;;;;;10.13;6.00;;;27.00;99.90;;;;;;5082969;28;20466;-72
2023/08/15 11:50:51;;;;;;;8.90;5.60;;;26.90;99.90;;;;;;5084214;28;20448;-72
2023/08/15 11:53:36;;;;;;;9.53;6.47;;;26.80;99.90;;;;;;5085947;28;20484;-72
2023/08/15 11:56:23;;;;;;;8.10;5.90;;;26.60;99.90;;;;;;5089997;28;20438;-72
2023/08/15 11:59:16;;;;;;;13.00;4.10;;;26.40;99.90;;;;;;5084402;28;20470;-72
2023/08/15 12:02:02;;;;;;;5.70;4.23;;;25.90;99.90;;;;;;5081630;28;20511;-72
2023/08/15 12:04:48;;;;;;;6.93;3.23;;;25.50;99.90;;;;;;5090132;28;20974;-72
2023/08/15 12:07:34;;;;;;;9.80;3.63;;;25.20;99.90;;;;;;5081817;28;20574;-72
2023/08/15 12:10:20;;;;;;;5.40;3.00;;;25.00;99.90;;;;;;5083578;28;20447;-70
2023/08/15 12:13:07;;;;;;;5.50;4.17;;;24.80;99.90;;;;;;5090143;28;21033;-71
2023/08/15 12:15:52;;;;;;;8.73;3.90;;;24.80;99.90;;;;;;5085587;28;20548;-72
2023/08/15 12:18:39;;;;;;;8.17;3.73;;;24.70;99.90;;;;;;5085207;28;20610;-71
2023/08/15 12:21:24;;;;;;;8.10;4.50;;;24.70;99.90;;;;;;5084362;28;21071;-71
2023/08/15 12:24:09;;;;;;;8.50;3.20;;;24.70;99.90;;;;;;5090760;28;20825;-72
2023/08/15 12:26:55;;;;;;;7.43;3.67;;;24.70;99.90;;;;;;5081492;28;20474;-71
2023/08/15 12:29:42;;;;;;;6.80;3.67;;;24.70;99.90;;;;;;5090196;28;21083;-72
2023/08/15 12:32:27;;;;;;;9.80;3.53;;;24.70;99.90;;;;;;5088207;28;20436;-72
2023/08/15 12:35:13;;;;;;;8.20;3.97;;;24.80;99.90;;;;;;5085537;28;20980;-72
2023/08/15 12:37:58;;;;;;;5.83;3.30;;;25.00;99.90;;;;;;5084133;28;20467;-72
2023/08/15 12:40:44;;;;;;;9.53;4.27;;;25.20;99.90;;;;;;5087112;28;20451;-71
2023/08/15 12:43:29;;;;;;;7.73;3.40;;;25.40;99.90;;;;;;5080828;28;20577;-72
2023/08/15 12:46:16;;;;;;;7.30;3.53;;;25.50;99.90;;;;;;5083398;28;20470;-72
2023/08/15 12:49:02;;;;;;;6.00;2.47;;;25.50;99.90;;;;;;5086406;28;21011;-71
2023/08/15 12:51:47;;;;;;;6.90;3.10;;;25.70;99.90;;;;;;5089850;28;20448;-72
2023/08/15 12:54:34;;;;;;;7.73;4.50;;;25.80;99.90;;;;;;5083930;28;20451;-71
2023/08/15 12:57:19;;;;;;;10.73;3.50;;;26.00;99.90;;;;;;5087747;28;20437;-72
2023/08/15 13:00:05;;;;;;;6.30;3.50;;;26.20;99.90;;;;;;5088763;28;20476;-71
2023/08/15 13:02:57;;;;;;;5.77;3.53;;;26.30;99.90;;;;;;5082059;28;20470;-71
2023/08/15 13:05:42;;;;;;;4.60;2.70;;;26.30;99.90;;;;;;5077719;28;21097;-71
2023/08/15 13:08:28;;;;;;;6.10;3.60;;;26.40;99.90;;;;;;5086180;28;20523;-71
2023/08/15 13:11:15;;;;;;;5.97;3.50;;;26.80;99.90;;;;;;5084818;28;20454;-71
2023/08/15 13:14:00;;;;;;;5.33;3.33;;;27.20;99.90;;;;;;5082757;28;20816;-72
2023/08/15 13:16:46;;;;;;;4.43;2.80;;;27.50;99.90;;;;;;5089075;28;20441;-71
2023/08/15 13:19:33;;;;;;;4.87;3.03;;;27.30;99.90;;;;;;5086330;28;20603;-72
2023/08/15 13:22:19;;;;;;;5.63;3.50;;;27.10;99.90;;;;;;5088594;28;20440;-71
2023/08/15 13:25:05;;;;;;;7.23;2.97;;;26.80;99.90;;;;;;5087599;28;20528;-71
2023/08/15 13:27:50;;;;;;;9.03;3.53;;;26.50;99.90;;;;;;5089074;28;20451;-71
2023/08/15 13:30:36;;;;;;;5.53;3.30;;;26.60;99.90;;;;;;5084593;28;20448;-72
2023/08/15 13:33:21;;;;;;;5.90;3.17;;;26.50;99.90;;;;;;5087666;28;21026;-71
2023/08/15 13:36:08;;;;;;;5.33;4.00;;;26.40;99.90;;;;;;5081088;28;20449;-71
2023/08/15 13:38:53;;;;;;;8.27;3.53;;;26.50;99.90;;;;;;5080367;28;20470;-72
2023/08/15 13:41:39;;;;;;;8.97;4.00;;;26.50;99.90;;;;;;5087961;28;20499;-71
2023/08/15 13:44:25;;;;;;;5.80;3.97;;;26.30;99.90;;;;;;5087706;28;20454;-71
2023/08/15 13:47:10;;;;;;;5.60;3.53;;;26.40;99.90;;;;;;5085518;28;20522;-72
2023/08/15 13:49:56;;;;;;;4.50;3.20;;;26.60;99.90;;;;;;5083038;28;20445;-73
2023/08/15 13:52:42;;;;;;;6.27;3.63;;;26.60;99.90;;;;;;5088521;28;21010;-71
2023/08/15 13:55:28;;;;;;;7.57;4.10;;;26.70;99.90;;;;;;5085682;28;20419;-72
2023/08/15 13:58:14;;;;;;;5.53;3.53;;;26.80;99.90;;;;;;5092904;28;20486;-71
2023/08/15 14:00:59;;;;;;;5.67;3.90;;;26.80;99.90;;;;;;5086972;28;20444;-72
2023/08/15 14:03:45;;;;;;;8.33;3.73;;;26.60;99.90;;;;;;5086634;28;20446;-72
2023/08/15 14:06:30;;;;;;;8.27;3.37;;;26.40;99.90;;;;;;5089172;28;20512;-71
2023/08/15 14:09:17;;;;;;;5.90;3.30;;;26.60;99.90;;;;;;5092129;28;20474;-72
2023/08/15 14:12:03;;;;;;;5.37;3.30;;;27.10;99.90;;;;;;5076008;28;20438;-71
2023/08/15 14:14:49;;;;;;;8.97;5.00;;;27.40;99.90;;;;;;5086446;28;20441;-71
2023/08/15 14:17:34;;;;;;;7.50;3.97;;;27.60;99.90;;;;;;5089878;28;20449;-71
2023/08/15 14:20:20;;;;;;;6.70;3.77;;;27.90;99.90;;;;;;5082917;28;21079;-72
2023/08/15 14:23:06;;;;;;;5.37;3.53;;;28.10;99.90;;;;;;5093110;28;20471;-72